Time;durP1;ratioP1;P1;durP2;ratioP2;P2;SDS_P1;SDS_P2;PMS_P1;PMS_P2;Temp;Humidity;BMP_temperature;BMP_pressure;BME280_temperature;BME280_humidity;BME280_pressure;Samples;Min_cycle;Max_cycle;Signal;HPM_P1;HPM_P2
2022/03/15 00:00:55;;;;;;;;;;;;;;;3.30;39.43;102161.78;1582755;89;20124;-77
2022/03/15 00:03:22;;;;;;;;;;;;;;;3.30;39.38;102163.06;1582786;90;20191;-77
2022/03/15 00:05:48;;;;;;;;;;;;;;;3.28;39.58;102162.53;1579640;89;20188;-77
2022/03/15 00:08:13;;;;;;;;;;;;;;;3.28;39.74;102164.69;1594721;88;20771;-78
2022/03/15 00:10:39;;;;;;;;;;;;;;;3.27;39.68;102164.22;1582899;90;20214;-77
2022/03/15 00:13:07;;;;;;;;;;;;;;;3.26;39.64;102166.72;1581608;89;20495;-77
2022/03/15 00:15:35;;;;;;;;;;;;;;;3.23;39.58;102166.19;1586709;87;20153;-77
2022/03/15 00:18:02;;;;;;;;;;;;;;;3.20;39.71;102167.75;1599472;88;20573;-77
2022/03/15 00:20:28;;;;;;;;;;;;;;;3.18;39.78;102171.94;1616504;87;20449;-77
2022/03/15 00:22:59;;;;;;;;;;;;;;;3.15;40.07;102170.53;1617223;87;20636;-77
2022/03/15 00:25:26;;;;;;;;;;;;;;;3.13;40.32;102173.44;1605679;87;20119;-77
2022/03/15 00:27:52;;;;;;;;;;;;;;;3.11;40.18;102172.54;1588027;88;20198;-76
2022/03/15 00:30:19;;;;;;;;;;;;;;;3.10;40.18;102172.95;1579586;90;20113;-76
2022/03/15 00:32:45;;;;;;;;;;;;;;;3.10;40.22;102178.46;1584506;88;20113;-76
2022/03/15 00:35:16;;;;;;;;;;;;;;;3.05;40.16;102178.28;1591993;88;20173;-76
2022/03/15 00:37:40;;;;;;;;;;;;;;;3.00;40.26;102177.23;1590847;89;20161;-76
2022/03/15 00:40:07;;;;;;;;;;;;;;;2.96;40.44;102179.19;1579046;87;315599;-76
2022/03/15 00:42:33;;;;;;;;;;;;;;;2.96;40.58;102178.78;1603119;87;20105;-76
2022/03/15 00:45:01;;;;;;;;;;;;;;;2.95;40.34;102185.98;1641598;87;20242;-76
2022/03/15 00:47:27;;;;;;;;;;;;;;;2.91;40.37;102187.08;1711562;82;20125;-76
2022/03/15 00:49:53;;;;;;;;;;;;;;;2.85;40.62;102187.70;1712268;83;20105;-76
2022/03/15 00:52:19;;;;;;;;;;;;;;;2.81;40.74;102192.63;1711631;83;20211;-77
2022/03/15 00:54:44;;;;;;;;;;;;;;;2.78;40.59;102187.38;1711091;83;20205;-77
2022/03/15 00:57:11;;;;;;;;;;;;;;;2.75;40.78;102177.91;1689327;83;20174;-77
2022/03/15 00:59:37;;;;;;;;;;;;;;;2.74;40.83;102181.28;1683639;85;20120;-77
2022/03/15 01:02:03;;;;;;;;;;;;;;;2.72;40.75;102175.64;1683944;83;20147;-77
2022/03/15 01:04:29;;;;;;;;;;;;;;;2.69;40.83;102175.52;1696139;83;20141;-76
2022/03/15 01:06:55;;;;;;;;;;;;;;;2.64;40.74;102171.49;1673714;83;20168;-78
2022/03/15 01:09:21;;;;;;;;;;;;;;;2.58;40.83;102172.55;1664468;86;20198;-77
2022/03/15 01:11:47;;;;;;;;;;;;;;;2.55;40.81;102172.42;1670452;86;20195;-77
2022/03/15 01:14:13;;;;;;;;;;;;;;;2.51;40.90;102171.83;1670630;86;20187;-77
2022/03/15 01:16:38;;;;;;;;;;;;;;;2.45;40.88;102168.61;1658949;84;20164;-77
2022/03/15 01:19:07;;;;;;;;;;;;;;;2.40;41.01;102171.38;1704750;83;20199;-77
2022/03/15 01:21:34;;;;;;;;;;;;;;;2.35;40.97;102179.24;1701678;83;20127;-76
2022/03/15 01:24:00;;;;;;;;;;;;;;;2.33;41.13;102183.00;1669140;84;20490;-77
2022/03/15 01:26:26;;;;;;;;;;;;;;;2.32;41.22;102191.88;1689256;83;20643;-77
2022/03/15 01:28:58;;;;;;;;;;;;;;;2.29;41.21;102192.61;1705848;83;20111;-77
2022/03/15 01:31:23;;;;;;;;;;;;;;;2.28;41.40;102192.14;1697924;83;20180;-77
2022/03/15 01:33:49;;;;;;;;;;;;;;;2.30;41.53;102189.25;1674597;83;20222;-77
2022/03/15 01:36:15;;;;;;;;;;;;;;;2.32;41.56;102193.15;1683413;83;20178;-77
2022/03/15 01:38:41;;;;;;;;;;;;;;;2.30;41.44;102195.64;1683451;85;20244;-77
2022/03/15 01:41:10;;;;;;;;;;;;;;;2.30;41.85;102196.91;1685572;83;20108;-77
2022/03/15 01:43:39;;;;;;;;;;;;;;;2.32;42.06;102195.30;1680167;83;20222;-77
2022/03/15 01:46:03;;;;;;;;;;;;;;;2.34;42.01;102190.26;1671297;83;20093;-77
2022/03/15 01:48:29;;;;;;;;;;;;;;;2.35;41.96;102186.90;1659374;85;20176;-76
2022/03/15 01:50:55;;;;;;;;;;;;;;;2.36;42.09;102194.16;1593027;88;20177;-77
2022/03/15 01:53:21;;;;;;;;;;;;;;;2.37;42.41;102195.90;1602252;88;20282;-77
2022/03/15 01:55:46;;;;;;;;;;;;;;;2.38;42.40;102197.64;1603642;88;20200;-76
2022/03/15 01:58:12;;;;;;;;;;;;;;;2.38;42.33;102199.80;1607075;88;20199;-77
2022/03/15 02:00:38;;;;;;;;;;;;;;;2.40;42.36;102201.14;1595381;88;20223;-77
2022/03/15 02:03:05;;;;;;;;;;;;;;;2.41;42.64;102200.33;1599102;88;20160;-76
2022/03/15 02:05:31;;;;;;;;;;;;;;;2.41;42.65;102202.88;1591689;89;20185;-76
2022/03/15 02:07:56;;;;;;;;;;;;;;;2.44;42.79;102201.33;1599216;88;20257;-77
2022/03/15 02:10:23;;;;;;;;;;;;;;;2.45;42.92;102203.08;1599184;88;20198;-76
2022/03/15 02:12:49;;;;;;;;;;;;;;;2.49;42.85;102196.42;1600299;89;20129;-76
2022/03/15 02:15:15;;;;;;;;;;;;;;;2.50;43.07;102196.48;1600302;88;20215;-76
2022/03/15 02:17:41;;;;;;;;;;;;;;;2.51;43.15;102196.95;1604644;86;20252;-77
2022/03/15 02:20:09;;;;;;;;;;;;;;;2.53;43.40;102194.06;1600188;89;20179;-76
2022/03/15 02:22:35;;;;;;;;;;;;;;;2.54;43.37;102186.00;1599966;89;20097;-76
2022/03/15 02:25:02;;;;;;;;;;;;;;;2.57;43.85;102181.89;1600363;88;20165;-76
2022/03/15 02:27:28;;;;;;;;;;;;;;;2.60;43.65;102182.42;1595026;88;20141;-76
2022/03/15 02:29:54;;;;;;;;;;;;;;;2.62;43.90;102187.16;1599940;88;20184;-76
2022/03/15 02:32:20;;;;;;;;;;;;;;;2.66;44.19;102187.75;1600372;89;21515;-76
2022/03/15 02:34:46;;;;;;;;;;;;;;;2.70;44.22;102190.90;1600314;89;20148;-76
2022/03/15 02:37:12;;;;;;;;;;;;;;;2.74;44.27;102184.23;1599761;88;20195;-76
2022/03/15 02:39:37;;;;;;;;;;;;;;;2.77;44.03;102187.80;1602417;88;20172;-76
2022/03/15 02:42:03;;;;;;;;;;;;;;;2.79;44.17;102181.47;1626121;88;20162;-76
2022/03/15 02:44:29;;;;;;;;;;;;;;;2.80;44.22;102183.21;1641583;87;20720;-76
2022/03/15 02:46:55;;;;;;;;;;;;;;;2.81;44.58;102174.73;1641002;86;20845;-76
2022/03/15 02:49:21;;;;;;;;;;;;;;;2.83;44.74;102183.34;1710232;83;20432;-76
2022/03/15 02:51:47;;;;;;;;;;;;;;;2.84;44.73;102188.91;1692944;83;20151;-76
2022/03/15 02:54:13;;;;;;;;;;;;;;;2.86;44.91;102196.23;1689887;83;20243;-76
2022/03/15 02:56:42;;;;;;;;;;;;;;;2.85;44.98;102191.53;1661530;86;20167;-76
2022/03/15 02:59:09;;;;;;;;;;;;;;;2.86;45.02;102189.45;1647186;85;20135;-76
2022/03/15 03:01:35;;;;;;;;;;;;;;;2.85;44.64;102194.49;1670431;86;20559;-77
2022/03/15 03:04:01;;;;;;;;;;;;;;;2.78;44.58;102195.92;1665481;86;20213;-77
2022/03/15 03:06:27;;;;;;;;;;;;;;;2.73;44.73;102200.38;1683436;83;20103;-77
2022/03/15 03:08:53;;;;;;;;;;;;;;;2.69;44.90;102202.33;1683573;85;20569;-77
2022/03/15 03:11:19;;;;;;;;;;;;;;;2.66;44.99;102202.67;1681490;83;20231;-77
2022/03/15 03:13:47;;;;;;;;;;;;;;;2.69;45.00;102207.03;1688117;83;20186;-77
2022/03/15 03:16:13;;;;;;;;;;;;;;;2.64;45.53;102209.39;1694905;82;20109;-76
2022/03/15 03:18:40;;;;;;;;;;;;;;;2.62;45.79;102196.97;1710964;83;20132;-76
2022/03/15 03:21:06;;;;;;;;;;;;;;;2.64;45.74;102201.73;1711085;83;20185;-76
2022/03/15 03:23:34;;;;;;;;;;;;;;;2.68;45.69;102201.45;1686934;83;20134;-76
2022/03/15 03:26:01;;;;;;;;;;;;;;;2.73;46.08;102207.62;1683475;85;20768;-77
2022/03/15 03:28:36;;;;;;;;;;;;;;;2.76;45.69;102194.98;1684898;83;20109;-77
2022/03/15 03:30:55;;;;;;;;;;;;;;;2.79;45.77;102198.07;1710932;83;20093;-77
2022/03/15 03:33:21;;;;;;;;;;;;;;;2.81;45.89;102199.01;1712147;83;20526;-77
2022/03/15 03:35:50;;;;;;;;;;;;;;;2.85;46.23;102196.64;1703558;83;20370;-77
2022/03/15 03:38:17;;;;;;;;;;;;;;;2.88;46.03;102198.05;1711741;83;20508;-77
2022/03/15 03:40:43;;;;;;;;;;;;;;;2.91;46.27;102198.17;1711626;83;20984;-77
2022/03/15 03:43:09;;;;;;;;;;;;;;;2.93;46.15;102197.83;1701301;83;20207;-76
2022/03/15 03:45:36;;;;;;;;;;;;;;;2.97;46.42;102198.41;1706872;82;20745;-76
2022/03/15 03:48:02;;;;;;;;;;;;;;;2.98;46.34;102198.88;1710679;83;20151;-77
2022/03/15 03:50:28;;;;;;;;;;;;;;;2.96;46.43;102197.08;1706529;83;20706;-77
2022/03/15 03:52:55;;;;;;;;;;;;;;;2.94;46.55;102188.48;1701035;83;20218;-76
2022/03/15 03:55:21;;;;;;;;;;;;;;;2.93;46.52;102202.94;1678341;83;20169;-76
2022/03/15 03:57:47;;;;;;;;;;;;;;;2.94;46.39;102194.86;1703961;83;20886;-77
2022/03/15 04:00:15;;;;;;;;;;;;;;;2.94;46.58;102197.02;1685797;83;20534;-77
2022/03/15 04:02:40;;;;;;;;;;;;;;;2.95;46.48;102184.70;1706408;83;20147;-76
2022/03/15 04:05:07;;;;;;;;;;;;;;;2.94;46.58;102186.80;1705257;83;20140;-76
2022/03/15 04:07:35;;;;;;;;;;;;;;;2.94;46.59;102197.42;1691629;83;20471;-77
2022/03/15 04:10:00;;;;;;;;;;;;;;;2.93;46.70;102193.99;1701016;83;20129;-77
2022/03/15 04:12:26;;;;;;;;;;;;;;;2.93;46.77;102195.27;1710447;83;20195;-76
2022/03/15 04:14:53;;;;;;;;;;;;;;;2.93;46.83;102190.16;1708884;83;20163;-76
2022/03/15 04:17:18;;;;;;;;;;;;;;;2.93;46.94;102194.39;1704474;82;20121;-77
2022/03/15 04:19:44;;;;;;;;;;;;;;;2.93;47.22;102190.16;1683531;83;20848;-77
2022/03/15 04:22:10;;;;;;;;;;;;;;;2.94;47.17;102191.91;1683314;84;20127;-76
2022/03/15 04:24:37;;;;;;;;;;;;;;;2.94;47.10;102184.64;1687769;83;20423;-75
2022/03/15 04:27:04;;;;;;;;;;;;;;;2.95;47.26;102187.27;1710152;83;20196;-75
2022/03/15 04:29:30;;;;;;;;;;;;;;;2.99;47.50;102190.81;1710453;83;20121;-75
2022/03/15 04:31:56;;;;;;;;;;;;;;;3.01;47.82;102193.42;1698319;83;20714;-75
2022/03/15 04:34:22;;;;;;;;;;;;;;;3.04;47.79;102193.14;1685955;83;20825;-75
2022/03/15 04:36:48;;;;;;;;;;;;;;;3.08;47.96;102195.02;1706033;83;20423;-75
2022/03/15 04:39:14;;;;;;;;;;;;;;;3.12;47.87;102196.84;1711008;83;20724;-75
2022/03/15 04:41:40;;;;;;;;;;;;;;;3.19;48.07;102201.39;1679052;83;20712;-75
2022/03/15 04:44:06;;;;;;;;;;;;;;;3.25;48.15;102199.48;1687628;83;20802;-75
2022/03/15 04:46:33;;;;;;;;;;;;;;;3.29;48.24;102199.66;1699942;82;20426;-75
2022/03/15 04:48:59;;;;;;;;;;;;;;;3.32;48.19;102204.02;1701683;83;20087;-74
2022/03/15 04:51:25;;;;;;;;;;;;;;;3.32;48.35;102206.58;1703796;83;20429;-74
2022/03/15 04:53:52;;;;;;;;;;;;;;;3.35;48.39;102209.66;1711545;83;20433;-74
2022/03/15 04:56:18;;;;;;;;;;;;;;;3.39;48.49;102209.84;1728851;82;20501;-75
2022/03/15 04:58:44;;;;;;;;;;;;;;;3.43;48.37;102213.39;1689514;82;20170;-75
2022/03/15 05:01:10;;;;;;;;;;;;;;;3.47;48.71;102215.25;1687041;82;20113;-76
2022/03/15 05:03:39;;;;;;;;;;;;;;;3.52;48.91;102214.62;1689758;82;20427;-76
2022/03/15 05:06:05;;;;;;;;;;;;;;;3.58;48.95;102211.02;1692987;82;21108;-76
2022/03/15 05:08:31;;;;;;;;;;;;;;;3.64;49.01;102212.90;1709831;82;20437;-75
2022/03/15 05:11:06;;;;;;;;;;;;;;;3.71;49.01;102209.76;1711259;82;20574;-75
2022/03/15 05:13:45;;;;;;;;;;;;;;;3.75;49.19;102208.19;1706012;82;20385;-75
2022/03/15 05:16:11;;;;;;;;;;;;;;;3.81;49.03;102209.70;1704759;82;20508;-74
2022/03/15 05:18:40;;;;;;;;;;;;;;;3.87;49.23;102212.48;1681676;83;21056;-75
2022/03/15 05:21:07;;;;;;;;;;;;;;;3.93;49.26;102213.98;1710570;83;20504;-75
2022/03/15 05:23:33;;;;;;;;;;;;;;;3.99;49.33;102221.48;1685480;83;20425;-75
2022/03/15 05:25:59;;;;;;;;;;;;;;;4.06;49.38;102216.18;1704016;83;20448;-75
2022/03/15 05:28:25;;;;;;;;;;;;;;;4.13;49.50;102221.98;1710381;83;20760;-75
2022/03/15 05:30:53;;;;;;;;;;;;;;;4.18;49.53;102216.59;1689718;83;20763;-75
2022/03/15 05:33:18;;;;;;;;;;;;;;;4.24;49.60;102214.66;1707480;83;20429;-75
2022/03/15 05:35:44;;;;;;;;;;;;;;;4.30;49.64;102216.16;1689432;82;20105;-75
2022/03/15 05:38:10;;;;;;;;;;;;;;;4.37;49.63;102214.68;1707660;83;20159;-75
2022/03/15 05:40:36;;;;;;;;;;;;;;;4.42;49.80;102214.44;1697754;83;20215;-75
2022/03/15 05:43:03;;;;;;;;;;;;;;;4.49;50.04;102207.02;1705473;83;20405;-75
2022/03/15 05:45:29;;;;;;;;;;;;;;;4.54;49.96;102210.61;1701703;82;20514;-75
2022/03/15 05:47:55;;;;;;;;;;;;;;;4.61;50.01;102208.72;1704742;83;20723;-75
2022/03/15 05:50:23;;;;;;;;;;;;;;;4.68;50.13;102212.77;1706797;83;20413;-75
2022/03/15 05:52:49;;;;;;;;;;;;;;;4.74;50.09;102209.97;1695355;83;20411;-75
2022/03/15 05:55:16;;;;;;;;;;;;;;;4.80;50.16;102212.73;1686376;83;20168;-75
2022/03/15 05:57:42;;;;;;;;;;;;;;;4.85;50.24;102206.07;1706133;83;20791;-75
2022/03/15 06:00:10;;;;;;;;;;;;;;;4.91;50.41;102207.97;1711232;83;20118;-75
2022/03/15 06:02:37;;;;;;;;;;;;;;;4.98;50.51;102209.91;1696231;82;20717;-75
2022/03/15 06:05:03;;;;;;;;;;;;;;;5.06;50.58;102208.88;1708473;82;20436;-75
2022/03/15 06:07:29;;;;;;;;;;;;;;;5.14;50.84;102201.02;1674757;83;20133;-75
2022/03/15 06:09:57;;;;;;;;;;;;;;;5.22;50.82;102212.35;1694156;83;20583;-75
2022/03/15 06:12:25;;;;;;;;;;;;;;;5.29;50.88;102211.31;1705829;83;20135;-76
2022/03/15 06:14:51;;;;;;;;;;;;;;;5.37;51.02;102214.11;1698431;83;20135;-76
2022/03/15 06:17:17;;;;;;;;;;;;;;;5.44;51.12;102213.48;1697297;82;20425;-76
2022/03/15 06:19:43;;;;;;;;;;;;;;;5.50;51.19;102218.80;1670096;86;20159;-75
2022/03/15 06:22:09;;;;;;;;;;;;;;;5.55;51.33;102218.53;1689230;83;20222;-75
2022/03/15 06:24:34;;;;;;;;;;;;;;;5.60;51.37;102219.53;1697110;83;20212;-75
2022/03/15 06:27:00;;;;;;;;;;;;;;;5.67;51.49;102216.74;1680262;83;20260;-75
2022/03/15 06:29:26;;;;;;;;;;;;;;;5.74;51.63;102225.05;1683414;83;20832;-75
2022/03/15 06:31:57;;;;;;;;;;;;;;;5.79;51.75;102221.33;1680307;83;20129;-75
2022/03/15 06:34:20;;;;;;;;;;;;;;;5.85;51.90;102221.10;1700851;83;20156;-75
2022/03/15 06:36:47;;;;;;;;;;;;;;;5.92;51.75;102224.75;1669272;86;20535;-75
2022/03/15 06:39:13;;;;;;;;;;;;;;;5.99;51.73;102229.23;1669953;85;20476;-75
2022/03/15 06:41:40;;;;;;;;;;;;;;;6.06;51.83;102223.86;1666286;84;20203;-75
2022/03/15 06:44:06;;;;;;;;;;;;;;;6.12;52.10;102220.19;1695764;82;20087;-75
2022/03/15 06:46:32;;;;;;;;;;;;;;;6.20;52.04;102227.69;1659593;84;20756;-75
2022/03/15 06:48:59;;;;;;;;;;;;;;;6.28;52.03;102220.63;1682742;83;20186;-75
2022/03/15 06:51:26;;;;;;;;;;;;;;;6.36;52.02;102230.23;1706257;82;20140;-77
2022/03/15 06:53:52;;;;;;;;;;;;;;;6.42;52.43;102225.27;1688666;82;20144;-75
2022/03/15 06:56:18;;;;;;;;;;;;;;;6.49;52.38;102219.45;1696023;82;20152;-75
2022/03/15 06:58:44;;;;;;;;;;;;;;;6.53;52.30;102220.87;1674822;84;20132;-75
2022/03/15 07:01:10;;;;;;;;;;;;;;;6.57;52.45;102216.67;1653428;85;20156;-75
2022/03/15 07:03:37;;;;;;;;;;;;;;;6.63;52.46;102220.28;1720548;82;20164;-76
2022/03/15 07:06:03;;;;;;;;;;;;;;;6.70;52.49;102223.00;1718329;82;20148;-77
2022/03/15 07:08:29;;;;;;;;;;;;;;;6.75;52.36;102223.58;1673081;83;20160;-77
2022/03/15 07:10:55;;;;;;;;;;;;;;;6.80;52.70;102228.80;1685242;82;20264;-77
2022/03/15 07:13:21;;;;;;;;;;;;;;;6.84;52.61;102226.77;1668715;84;20217;-77
2022/03/15 07:15:48;;;;;;;;;;;;;;;6.85;52.73;102228.50;1702195;82;20827;-77
2022/03/15 07:18:15;;;;;;;;;;;;;;;6.87;52.84;102234.14;1709157;82;20366;-77
2022/03/15 07:20:41;;;;;;;;;;;;;;;6.92;52.77;102231.27;1703150;82;20227;-77
2022/03/15 07:23:07;;;;;;;;;;;;;;;6.96;52.78;102228.36;1695090;82;20097;-77
2022/03/15 07:25:33;;;;;;;;;;;;;;;7.00;52.84;102221.59;1701669;83;20211;-77
2022/03/15 07:27:59;;;;;;;;;;;;;;;7.03;53.03;102224.23;1697016;82;20214;-77
2022/03/15 07:30:27;;;;;;;;;;;;;;;7.06;53.00;102222.61;1691851;82;20337;-77
2022/03/15 07:32:54;;;;;;;;;;;;;;;7.11;53.17;102222.72;1676486;82;20263;-77
2022/03/15 07:35:20;;;;;;;;;;;;;;;7.15;53.29;102219.39;1706328;82;20601;-77
2022/03/15 07:37:51;;;;;;;;;;;;;;;7.18;53.30;102220.33;1686505;83;20132;-77
2022/03/15 07:40:17;;;;;;;;;;;;;;;7.22;53.25;102214.84;1677682;83;20189;-77
2022/03/15 07:42:43;;;;;;;;;;;;;;;7.26;53.60;102217.94;1690660;82;20121;-77
2022/03/15 07:45:12;;;;;;;;;;;;;;;7.30;53.44;102223.16;1680331;82;20447;-77
2022/03/15 07:47:38;;;;;;;;;;;;;;;7.35;53.41;102228.41;1711788;82;20242;-77
2022/03/15 07:50:05;;;;;;;;;;;;;;;7.41;53.55;102218.67;1687388;81;20120;-77
2022/03/15 07:52:31;;;;;;;;;;;;;;;7.44;53.15;102222.19;1681660;82;20462;-77
2022/03/15 07:54:56;;;;;;;;;;;;;;;7.46;53.44;102230.81;1693889;82;20221;-77
2022/03/15 07:57:22;;;;;;;;;;;;;;;7.49;53.63;102231.30;1693609;82;20519;-77
2022/03/15 07:59:48;;;;;;;;;;;;;;;7.50;53.68;102229.18;1693790;82;20195;-77
2022/03/15 08:02:15;;;;;;;;;;;;;;;7.52;53.86;102228.80;1708663;82;20132;-77
2022/03/15 08:04:42;;;;;;;;;;;;;;;7.51;53.72;102222.78;1706263;82;20143;-76
2022/03/15 08:07:08;;;;;;;;;;;;;;;7.50;53.99;102224.03;1704318;82;20767;-76
2022/03/15 08:09:34;;;;;;;;;;;;;;;7.50;54.06;102225.32;1671143;83;20204;-76
2022/03/15 08:12:00;;;;;;;;;;;;;;;7.51;53.93;102229.63;1697717;82;20140;-77
2022/03/15 08:14:26;;;;;;;;;;;;;;;7.49;54.13;102225.73;1701463;82;20159;-77
2022/03/15 08:16:52;;;;;;;;;;;;;;;7.50;54.15;102219.75;1698738;82;20809;-77
2022/03/15 08:19:18;;;;;;;;;;;;;;;7.51;54.22;102223.20;1703910;82;20528;-77
2022/03/15 08:21:44;;;;;;;;;;;;;;;7.49;54.33;102223.58;1678594;83;20123;-77
2022/03/15 08:24:11;;;;;;;;;;;;;;;7.50;54.50;102225.32;1690303;82;20133;-77
2022/03/15 08:26:38;;;;;;;;;;;;;;;7.51;54.58;102221.91;1687392;82;20099;-77
2022/03/15 08:29:07;;;;;;;;;;;;;;;7.53;54.64;102225.39;1687864;82;20440;-78
2022/03/15 08:31:33;;;;;;;;;;;;;;;7.54;54.86;102225.42;1668131;83;20116;-77
2022/03/15 08:33:59;;;;;;;;;;;;;;;7.56;54.97;102219.89;1688101;82;20176;-78
2022/03/15 08:36:25;;;;;;;;;;;;;;;7.60;54.85;102219.54;1691984;82;20176;-78
2022/03/15 08:38:53;;;;;;;;;;;;;;;7.64;54.89;102211.05;1689300;82;20139;-79
2022/03/15 08:41:22;;;;;;;;;;;;;;;7.72;55.07;102204.36;1692875;82;20168;-78
2022/03/15 08:43:48;;;;;;;;;;;;;;;7.85;55.17;102203.75;1689247;82;20166;-78
2022/03/15 08:46:14;;;;;;;;;;;;;;;8.00;55.55;102196.75;1674883;83;20160;-80
2022/03/15 08:48:39;;;;;;;;;;;;;;;8.15;55.50;102193.19;1602503;86;20458;-78
2022/03/15 08:51:05;;;;;;;;;;;;;;;8.32;55.49;102197.34;1610659;86;20217;-73
2022/03/15 08:53:35;;;;;;;;;;;;;;;8.46;55.49;102202.79;1601494;86;20172;-75
2022/03/15 08:56:01;;;;;;;;;;;;;;;8.59;55.33;102200.88;1622602;86;20452;-75
2022/03/15 08:58:28;;;;;;;;;;;;;;;8.73;55.43;102197.25;1594836;86;20116;-76
2022/03/15 09:00:54;;;;;;;;;;;;;;;8.84;55.35;102197.84;1600977;85;109658;-76
2022/03/15 09:03:22;;;;;;;;;;;;;;;8.98;55.40;102200.66;1622728;86;20620;-75
2022/03/15 09:05:48;;;;;;;;;;;;;;;9.07;55.16;102198.22;1622590;86;20475;-75
2022/03/15 09:08:14;;;;;;;;;;;;;;;9.17;54.93;102201.39;1640583;85;20272;-75
2022/03/15 09:10:40;;;;;;;;;;;;;;;9.20;55.30;102196.27;1625801;86;20154;-76
2022/03/15 09:13:09;;;;;;;;;;;;;;;9.27;55.44;102197.23;1618083;86;20141;-76
2022/03/15 09:15:37;;;;;;;;;;;;;;;9.35;55.62;102193.05;1617848;86;20426;-76
2022/03/15 09:18:03;;;;;;;;;;;;;;;9.41;55.34;102196.98;1650925;85;20462;-76
2022/03/15 09:20:29;;;;;;;;;;;;;;;9.47;55.41;102192.33;1626249;86;20449;-76
2022/03/15 09:22:55;;;;;;;;;;;;;;;9.54;55.45;102198.02;1625229;86;20185;-76
2022/03/15 09:25:22;;;;;;;;;;;;;;;9.59;55.25;102192.49;1621937;86;20440;-80
2022/03/15 09:27:48;;;;;;;;;;;;;;;9.61;55.48;102195.54;1620131;86;20155;-80
2022/03/15 09:30:14;;;;;;;;;;;;;;;9.66;55.40;102194.31;1626873;86;20153;-81
2022/03/15 09:32:40;;;;;;;;;;;;;;;9.72;55.17;102196.11;1638689;85;20440;-80
2022/03/15 09:35:06;;;;;;;;;;;;;;;9.72;55.26;102194.39;1625345;86;20145;-79
2022/03/15 09:37:33;;;;;;;;;;;;;;;9.72;55.47;102191.80;1612994;86;20138;-79
2022/03/15 09:39:59;;;;;;;;;;;;;;;9.73;55.35;102187.09;1631886;86;20114;-79
2022/03/15 09:42:28;;;;;;;;;;;;;;;9.74;55.79;102190.11;1644025;85;20650;-79
2022/03/15 09:44:58;;;;;;;;;;;;;;;9.76;55.46;102194.01;1620523;85;20525;-79
2022/03/15 09:47:25;;;;;;;;;;;;;;;9.79;55.62;102184.58;1616431;87;20133;-79
2022/03/15 09:49:53;;;;;;;;;;;;;;;9.83;55.73;102181.19;1656412;85;20118;-79
2022/03/15 09:52:20;;;;;;;;;;;;;;;9.90;55.67;102183.39;1646834;85;20102;-79
2022/03/15 09:54:47;;;;;;;;;;;;;;;9.93;55.52;102188.17;1648874;85;20527;-79
2022/03/15 09:57:13;;;;;;;;;;;;;;;9.95;55.66;102185.60;1654542;85;20137;-80
2022/03/15 09:59:39;;;;;;;;;;;;;;;9.97;55.55;102192.95;1655591;85;20141;-80
2022/03/15 10:02:06;;;;;;;;;;;;;;;9.96;55.75;102194.66;1633076;85;20215;-80
2022/03/15 10:04:32;;;;;;;;;;;;;;;10.00;55.81;102198.16;1653818;85;20193;-79
2022/03/15 10:06:58;;;;;;;;;;;;;;;10.00;55.79;102194.28;1644196;85;20174;-79
2022/03/15 10:09:27;;;;;;;;;;;;;;;10.01;55.93;102200.31;1655596;85;20193;-79
2022/03/15 10:11:53;;;;;;;;;;;;;;;9.98;55.85;102201.56;1658256;85;20220;-79
2022/03/15 10:14:19;;;;;;;;;;;;;;;9.95;56.08;102192.93;1650400;85;20505;-79
2022/03/15 10:16:46;;;;;;;;;;;;;;;9.96;56.00;102196.38;1635882;85;20721;-79
2022/03/15 10:19:14;;;;;;;;;;;;;;;9.94;55.96;102189.91;1665610;85;20090;-79
2022/03/15 10:21:49;;;;;;;;;;;;;;;9.99;55.93;102189.95;1652408;85;20102;-79
2022/03/15 10:24:19;;;;;;;;;;;;;;;9.99;56.10;102186.50;1652818;85;20098;-79
2022/03/15 10:26:47;;;;;;;;;;;;;;;9.98;56.08;102182.19;1643566;85;20130;-79
2022/03/15 10:29:14;;;;;;;;;;;;;;;9.98;56.11;102181.77;1651890;85;20182;-80
2022/03/15 10:31:42;;;;;;;;;;;;;;;9.94;56.00;102174.82;1653014;85;20331;-79
2022/03/15 10:34:08;;;;;;;;;;;;;;;9.91;56.21;102170.91;1648745;85;20101;-79
2022/03/15 10:36:37;;;;;;;;;;;;;;;9.92;56.87;102175.23;1651065;85;20109;-79
2022/03/15 10:39:03;;;;;;;;;;;;;;;9.89;56.19;102170.89;1655799;85;20130;-79
2022/03/15 10:41:29;;;;;;;;;;;;;;;9.86;56.36;102168.73;1647787;85;20192;-79
2022/03/15 10:44:01;;;;;;;;;;;;;;;9.85;56.60;102170.45;1653760;85;20248;-79
2022/03/15 10:46:25;;;;;;;;;;;;;;;9.85;56.54;102169.58;1686162;82;20129;-79
2022/03/15 10:49:02;;;;;;;;;;;;;;;9.83;56.64;102170.85;1710081;82;20130;-79
2022/03/15 10:51:28;;;;;;;;;;;;;;;9.86;56.78;102172.61;1711106;82;20085;-80
2022/03/15 10:54:04;;;;;;;;;;;;;;;9.91;56.62;102166.61;1695547;82;20140;-80
2022/03/15 10:56:30;;;;;;;;;;;;;;;9.99;56.80;102160.23;1707585;82;20131;-78
2022/03/15 10:59:02;;;;;;;;;;;;;;;10.09;56.87;102158.63;1693980;83;20125;-78
2022/03/15 11:01:29;;;;;;;;;;;;;;;10.13;56.90;102158.67;1704685;82;20149;-77
2022/03/15 11:03:58;;;;;;;;;;;;;;;10.20;56.81;102154.47;1709953;82;20129;-77
2022/03/15 11:06:44;;;;;;;;;;;;;;;10.23;56.85;102156.66;1688456;82;20132;-77
2022/03/15 11:09:24;;;;;;;;;;;;;;;10.23;56.82;102156.66;1670138;84;20098;-77
2022/03/15 11:12:08;;;;;;;;;;;;;;;10.22;56.94;102158.80;1676445;84;20138;-77
2022/03/15 11:14:39;;;;;;;;;;;;;;;10.17;56.78;102155.27;1661242;84;20138;-77
2022/03/15 11:17:07;;;;;;;;;;;;;;;10.14;56.91;102153.08;1665663;84;20136;-77
2022/03/15 11:19:36;;;;;;;;;;;;;;;10.14;56.91;102156.95;1676081;84;20410;-77
2022/03/15 11:22:03;;;;;;;;;;;;;;;10.20;56.95;102148.01;1672496;84;20098;-77
2022/03/15 11:24:34;;;;;;;;;;;;;;;10.29;57.21;102149.39;1675861;83;20126;-77
2022/03/15 11:27:01;;;;;;;;;;;;;;;10.41;57.44;102137.84;1653512;84;20096;-77
2022/03/15 11:29:31;;;;;;;;;;;;;;;10.54;57.36;102138.39;1667454;84;20130;-77
2022/03/15 11:31:58;;;;;;;;;;;;;;;10.67;57.28;102137.20;1677651;84;39579;-77
2022/03/15 11:34:24;;;;;;;;;;;;;;;10.76;57.17;102132.97;1671600;84;20106;-77
2022/03/15 11:36:52;;;;;;;;;;;;;;;10.86;57.31;102137.36;1672304;84;20123;-77
2022/03/15 11:39:19;;;;;;;;;;;;;;;11.00;57.30;102127.50;1661324;84;20102;-77
2022/03/15 11:41:46;;;;;;;;;;;;;;;11.15;57.18;102126.30;1667079;84;20112;-77
2022/03/15 11:44:16;;;;;;;;;;;;;;;11.27;57.14;102125.08;1676324;84;20150;-77
2022/03/15 11:46:52;;;;;;;;;;;;;;;11.41;56.93;102122.56;1673001;83;20101;-77
2022/03/15 11:49:24;;;;;;;;;;;;;;;11.51;57.00;102124.30;1665408;84;20431;-77
2022/03/15 11:51:56;;;;;;;;;;;;;;;11.64;57.08;102123.50;1679082;84;20149;-77
2022/03/15 11:54:44;;;;;;;;;;;;;;;11.75;56.93;102121.81;1672137;84;20092;-77
2022/03/15 11:57:25;;;;;;;;;;;;;;;11.81;56.82;102116.68;1675981;84;20105;-77
2022/03/15 11:59:56;;;;;;;;;;;;;;;11.89;56.89;102110.23;1674178;84;20097;-77
2022/03/15 12:02:27;;;;;;;;;;;;;;;11.94;56.71;102104.63;1676530;84;20420;-77
2022/03/15 12:04:54;;;;;;;;;;;;;;;11.98;56.67;102097.69;1644729;85;20595;-78
2022/03/15 12:07:41;;;;;;;;;;;;;;;11.95;56.55;102092.52;1654313;85;20412;-78
2022/03/15 12:09:58;;;;;;;;;;;;;;;11.92;56.57;102093.38;1646087;85;20370;-78
2022/03/15 12:12:28;;;;;;;;;;;;;;;11.86;56.48;102092.07;1645167;85;20110;-77
2022/03/15 12:14:54;;;;;;;;;;;;;;;11.83;56.52;102088.17;1671179;84;20154;-77
2022/03/15 12:17:22;;;;;;;;;;;;;;;11.79;56.51;102089.89;1679375;83;20142;-78
2022/03/15 12:19:50;;;;;;;;;;;;;;;11.76;56.41;102084.67;1643105;85;20165;-78
2022/03/15 12:22:27;;;;;;;;;;;;;;;11.75;56.44;102076.46;1655373;85;21646;-78
2022/03/15 12:25:05;;;;;;;;;;;;;;;11.74;56.45;102074.73;1650692;85;20119;-78
2022/03/15 12:27:45;;;;;;;;;;;;;;;11.78;56.51;102079.09;1654722;85;20772;-77
2022/03/15 12:30:16;;;;;;;;;;;;;;;11.80;56.57;102073.91;1646031;85;20128;-77
2022/03/15 12:32:43;;;;;;;;;;;;;;;11.85;56.52;102075.66;1650298;85;20415;-77
2022/03/15 12:35:11;;;;;;;;;;;;;;;11.87;56.60;102077.82;1644413;85;20470;-77
2022/03/15 12:37:39;;;;;;;;;;;;;;;11.93;56.63;102078.27;1642170;85;20528;-77
2022/03/15 12:40:07;;;;;;;;;;;;;;;11.98;56.60;102075.22;1646380;85;20096;-77
2022/03/15 12:42:33;;;;;;;;;;;;;;;12.02;56.59;102070.47;1658008;85;20196;-77
2022/03/15 12:45:06;;;;;;;;;;;;;;;12.07;56.68;102067.89;1642994;85;20220;-77